sensor_id;sensor_type;location;lat;lon;timestamp;temperature;humidity
19242;DHT22;9755;47.790;9.620;2022-12-08T00:01:12;-0.10;99.90
19242;DHT22;9755;47.790;9.620;2022-12-08T00:03:40;-0.10;99.90
19242;DHT22;9755;47.790;9.620;2022-12-08T00:06:15;-0.10;99.90
19242;DHT22;9755;47.790;9.620;2022-12-08T00:09:03;-0.10;99.90
19242;DHT22;9755;47.790;9.620;2022-12-08T00:11:50;-0.10;99.90
19242;DHT22;9755;47.790;9.620;2022-12-08T00:14:17;-0.10;99.90
19242;DHT22;9755;47.790;9.620;2022-12-08T00:16:44;0.00;99.90
19242;DHT22;9755;47.790;9.620;2022-12-08T00:19:11;-0.10;99.90
19242;DHT22;9755;47.790;9.620;2022-12-08T00:21:38;-0.10;99.90
19242;DHT22;9755;47.790;9.620;2022-12-08T00:24:07;-0.10;99.90
19242;DHT22;9755;47.790;9.620;2022-12-08T00:26:35;-0.10;99.90
19242;DHT22;9755;47.790;9.620;2022-12-08T00:29:02;0.00;99.90
19242;DHT22;9755;47.790;9.620;2022-12-08T00:31:30;-0.10;99.90
19242;DHT22;9755;47.790;9.620;2022-12-08T00:33:57;0.00;99.90
19242;DHT22;9755;47.790;9.620;2022-12-08T00:36:24;-0.10;99.90
19242;DHT22;9755;47.790;9.620;2022-12-08T00:38:51;-0.10;99.90
19242;DHT22;9755;47.790;9.620;2022-12-08T00:41:22;-0.10;99.90
19242;DHT22;9755;47.790;9.620;2022-12-08T00:44:12;-0.10;99.90
19242;DHT22;9755;47.790;9.620;2022-12-08T00:46:39;0.00;99.90
19242;DHT22;9755;47.790;9.620;2022-12-08T00:49:07;0.00;99.90
19242;DHT22;9755;47.790;9.620;2022-12-08T00:51:34;0.00;99.90
19242;DHT22;9755;47.790;9.620;2022-12-08T00:54:01;-0.10;99.90
19242;DHT22;9755;47.790;9.620;2022-12-08T00:56:29;-0.10;99.90
19242;DHT22;9755;47.790;9.620;2022-12-08T00:58:57;-0.10;99.90
19242;DHT22;9755;47.790;9.620;2022-12-08T01:01:24;0.00;99.90
19242;DHT22;9755;47.790;9.620;2022-12-08T01:03:51;-0.10;99.90
19242;DHT22;9755;47.790;9.620;2022-12-08T01:06:18;0.00;99.90
19242;DHT22;9755;47.790;9.620;2022-12-08T01:08:45;0.00;99.90
19242;DHT22;9755;47.790;9.620;2022-12-08T01:11:14;-0.10;99.90
19242;DHT22;9755;47.790;9.620;2022-12-08T01:13:43;0.00;99.90
19242;DHT22;9755;47.790;9.620;2022-12-08T01:16:18;0.00;99.90
19242;DHT22;9755;47.790;9.620;2022-12-08T01:18:45;-0.10;99.90
19242;DHT22;9755;47.790;9.620;2022-12-08T01:21:13;-0.10;99.90
19242;DHT22;9755;47.790;9.620;2022-12-08T01:23:40;-0.10;99.90
19242;DHT22;9755;47.790;9.620;2022-12-08T01:26:09;-0.10;99.90
19242;DHT22;9755;47.790;9.620;2022-12-08T01:28:37;-0.10;99.90
19242;DHT22;9755;47.790;9.620;2022-12-08T01:31:10;-0.20;99.90
19242;DHT22;9755;47.790;9.620;2022-12-08T01:33:37;-0.10;99.90
19242;DHT22;9755;47.790;9.620;2022-12-08T01:36:05;-0.10;99.90
19242;DHT22;9755;47.790;9.620;2022-12-08T01:38:32;0.00;99.90
19242;DHT22;9755;47.790;9.620;2022-12-08T01:40:59;-0.10;99.90
19242;DHT22;9755;47.790;9.620;2022-12-08T01:46:28;0.00;99.90
19242;DHT22;9755;47.790;9.620;2022-12-08T01:49:01;0.00;99.90
19242;DHT22;9755;47.790;9.620;2022-12-08T01:51:31;-0.10;99.90
19242;DHT22;9755;47.790;9.620;2022-12-08T01:53:59;0.00;99.90
19242;DHT22;9755;47.790;9.620;2022-12-08T01:56:34;0.00;99.90
19242;DHT22;9755;47.790;9.620;2022-12-08T01:59:03;0.00;99.90
19242;DHT22;9755;47.790;9.620;2022-12-08T02:01:32;0.00;99.90
19242;DHT22;9755;47.790;9.620;2022-12-08T02:04:01;0.00;99.90
19242;DHT22;9755;47.790;9.620;2022-12-08T02:06:31;0.00;99.90
19242;DHT22;9755;47.790;9.620;2022-12-08T02:09:02;0.00;99.90
19242;DHT22;9755;47.790;9.620;2022-12-08T02:11:31;0.00;99.90
19242;DHT22;9755;47.790;9.620;2022-12-08T02:13:59;0.00;99.90
19242;DHT22;9755;47.790;9.620;2022-12-08T02:16:36;0.00;99.90
19242;DHT22;9755;47.790;9.620;2022-12-08T02:19:48;0.00;99.90
19242;DHT22;9755;47.790;9.620;2022-12-08T02:22:27;0.00;99.90
19242;DHT22;9755;47.790;9.620;2022-12-08T02:25:01;0.10;99.90
19242;DHT22;9755;47.790;9.620;2022-12-08T02:27:39;0.00;99.90
19242;DHT22;9755;47.790;9.620;2022-12-08T02:30:19;0.00;99.90
19242;DHT22;9755;47.790;9.620;2022-12-08T02:33:18;0.10;99.90
19242;DHT22;9755;47.790;9.620;2022-12-08T02:35:56;0.10;99.90
19242;DHT22;9755;47.790;9.620;2022-12-08T02:38:33;0.10;99.90
19242;DHT22;9755;47.790;9.620;2022-12-08T02:41:09;0.10;99.90
19242;DHT22;9755;47.790;9.620;2022-12-08T02:43:41;0.10;99.90
19242;DHT22;9755;47.790;9.620;2022-12-08T02:46:13;0.10;99.90
19242;DHT22;9755;47.790;9.620;2022-12-08T02:48:42;0.20;99.90
19242;DHT22;9755;47.790;9.620;2022-12-08T02:51:10;0.20;99.90
19242;DHT22;9755;47.790;9.620;2022-12-08T02:53:38;0.20;99.90
19242;DHT22;9755;47.790;9.620;2022-12-08T02:56:13;0.20;99.90
19242;DHT22;9755;47.790;9.620;2022-12-08T02:59:08;0.10;99.90
19242;DHT22;9755;47.790;9.620;2022-12-08T03:01:48;0.10;99.90
19242;DHT22;9755;47.790;9.620;2022-12-08T03:04:25;0.10;99.90
19242;DHT22;9755;47.790;9.620;2022-12-08T03:07:00;0.10;99.90
19242;DHT22;9755;47.790;9.620;2022-12-08T03:09:35;0.10;99.90
19242;DHT22;9755;47.790;9.620;2022-12-08T03:12:08;0.10;99.90
19242;DHT22;9755;47.790;9.620;2022-12-08T03:14:39;0.10;99.90
19242;DHT22;9755;47.790;9.620;2022-12-08T03:17:10;0.10;99.90
19242;DHT22;9755;47.790;9.620;2022-12-08T03:19:41;0.10;99.90
19242;DHT22;9755;47.790;9.620;2022-12-08T03:22:11;0.00;99.90
19242;DHT22;9755;47.790;9.620;2022-12-08T03:24:42;0.10;99.90
19242;DHT22;9755;47.790;9.620;2022-12-08T03:27:11;0.10;99.90
19242;DHT22;9755;47.790;9.620;2022-12-08T03:29:39;0.10;99.90
19242;DHT22;9755;47.790;9.620;2022-12-08T03:32:12;0.10;99.90
19242;DHT22;9755;47.790;9.620;2022-12-08T03:34:43;0.10;99.90
19242;DHT22;9755;47.790;9.620;2022-12-08T03:37:13;0.00;99.90
19242;DHT22;9755;47.790;9.620;2022-12-08T03:39:40;0.00;99.90
19242;DHT22;9755;47.790;9.620;2022-12-08T03:42:07;0.00;99.90
19242;DHT22;9755;47.790;9.620;2022-12-08T03:44:34;0.00;99.90
19242;DHT22;9755;47.790;9.620;2022-12-08T03:47:01;0.00;99.90
19242;DHT22;9755;47.790;9.620;2022-12-08T03:49:28;-0.10;99.90
19242;DHT22;9755;47.790;9.620;2022-12-08T03:51:55;-0.10;99.90
19242;DHT22;9755;47.790;9.620;2022-12-08T03:54:23;-0.10;99.90
19242;DHT22;9755;47.790;9.620;2022-12-08T03:56:50;-0.10;99.90
19242;DHT22;9755;47.790;9.620;2022-12-08T03:59:17;-0.20;99.90
19242;DHT22;9755;47.790;9.620;2022-12-08T04:01:44;-0.20;99.90
19242;DHT22;9755;47.790;9.620;2022-12-08T04:04:11;-0.20;99.90
19242;DHT22;9755;47.790;9.620;2022-12-08T04:06:38;-0.20;99.90
19242;DHT22;9755;47.790;9.620;2022-12-08T04:09:05;-0.20;99.90
19242;DHT22;9755;47.790;9.620;2022-12-08T04:11:34;-0.30;99.90
19242;DHT22;9755;47.790;9.620;2022-12-08T04:14:01;-0.30;99.90
19242;DHT22;9755;47.790;9.620;2022-12-08T04:16:28;-0.30;99.90
19242;DHT22;9755;47.790;9.620;2022-12-08T04:18:55;-0.20;99.90
19242;DHT22;9755;47.790;9.620;2022-12-08T04:21:22;-0.20;99.90
19242;DHT22;9755;47.790;9.620;2022-12-08T04:23:49;-0.20;99.90
19242;DHT22;9755;47.790;9.620;2022-12-08T04:26:16;-0.20;99.90
19242;DHT22;9755;47.790;9.620;2022-12-08T04:28:45;-0.20;99.90
19242;DHT22;9755;47.790;9.620;2022-12-08T04:31:12;-0.20;99.90
19242;DHT22;9755;47.790;9.620;2022-12-08T04:33:39;-0.10;99.90
19242;DHT22;9755;47.790;9.620;2022-12-08T04:36:07;-0.10;99.90
19242;DHT22;9755;47.790;9.620;2022-12-08T04:38:35;-0.20;99.90
19242;DHT22;9755;47.790;9.620;2022-12-08T04:41:02;-0.10;99.90
19242;DHT22;9755;47.790;9.620;2022-12-08T04:43:29;-0.20;99.90
19242;DHT22;9755;47.790;9.620;2022-12-08T04:45:57;-0.10;99.90
19242;DHT22;9755;47.790;9.620;2022-12-08T04:48:25;-0.10;99.90
19242;DHT22;9755;47.790;9.620;2022-12-08T04:50:52;-0.10;99.90
19242;DHT22;9755;47.790;9.620;2022-12-08T04:53:19;-0.10;99.90
19242;DHT22;9755;47.790;9.620;2022-12-08T04:55:46;-0.10;99.90
19242;DHT22;9755;47.790;9.620;2022-12-08T04:58:15;-0.10;99.90
19242;DHT22;9755;47.790;9.620;2022-12-08T05:00:43;0.00;99.90
19242;DHT22;9755;47.790;9.620;2022-12-08T05:03:12;-0.10;99.90
19242;DHT22;9755;47.790;9.620;2022-12-08T05:05:40;0.00;99.90
19242;DHT22;9755;47.790;9.620;2022-12-08T05:08:08;-0.10;99.90
19242;DHT22;9755;47.790;9.620;2022-12-08T05:10:36;-0.10;99.90
19242;DHT22;9755;47.790;9.620;2022-12-08T05:13:03;-0.10;99.90
19242;DHT22;9755;47.790;9.620;2022-12-08T05:15:30;-0.10;99.90
19242;DHT22;9755;47.790;9.620;2022-12-08T05:17:57;-0.10;99.90
19242;DHT22;9755;47.790;9.620;2022-12-08T05:20:25;0.00;99.90
19242;DHT22;9755;47.790;9.620;2022-12-08T05:22:53;0.10;99.90
19242;DHT22;9755;47.790;9.620;2022-12-08T05:25:20;0.10;99.90
19242;DHT22;9755;47.790;9.620;2022-12-08T05:27:47;0.10;99.90
19242;DHT22;9755;47.790;9.620;2022-12-08T05:30:14;0.10;99.90
19242;DHT22;9755;47.790;9.620;2022-12-08T05:32:41;0.20;99.90
19242;DHT22;9755;47.790;9.620;2022-12-08T05:35:08;0.20;99.90
19242;DHT22;9755;47.790;9.620;2022-12-08T05:37:37;0.10;99.90
19242;DHT22;9755;47.790;9.620;2022-12-08T05:40:05;0.20;99.90
19242;DHT22;9755;47.790;9.620;2022-12-08T05:42:32;0.20;99.90
19242;DHT22;9755;47.790;9.620;2022-12-08T05:44:59;0.20;99.90
19242;DHT22;9755;47.790;9.620;2022-12-08T05:47:26;0.20;99.90
19242;DHT22;9755;47.790;9.620;2022-12-08T05:49:53;0.20;99.90
19242;DHT22;9755;47.790;9.620;2022-12-08T05:52:20;0.20;99.90
19242;DHT22;9755;47.790;9.620;2022-12-08T05:54:49;0.20;99.90
19242;DHT22;9755;47.790;9.620;2022-12-08T05:57:16;0.20;99.90
19242;DHT22;9755;47.790;9.620;2022-12-08T05:59:43;0.20;99.90
19242;DHT22;9755;47.790;9.620;2022-12-08T06:02:10;0.20;99.90
19242;DHT22;9755;47.790;9.620;2022-12-08T06:04:37;0.20;99.90
19242;DHT22;9755;47.790;9.620;2022-12-08T06:07:04;0.20;99.90
19242;DHT22;9755;47.790;9.620;2022-12-08T06:09:31;0.20;99.90
19242;DHT22;9755;47.790;9.620;2022-12-08T06:12:00;0.20;99.90
19242;DHT22;9755;47.790;9.620;2022-12-08T06:14:27;0.20;99.90
19242;DHT22;9755;47.790;9.620;2022-12-08T06:16:54;0.30;99.90
19242;DHT22;9755;47.790;9.620;2022-12-08T06:19:21;0.30;99.90
19242;DHT22;9755;47.790;9.620;2022-12-08T06:21:48;0.30;99.90
19242;DHT22;9755;47.790;9.620;2022-12-08T06:24:15;0.30;99.90
19242;DHT22;9755;47.790;9.620;2022-12-08T06:26:42;0.20;99.90
19242;DHT22;9755;47.790;9.620;2022-12-08T06:29:13;0.30;99.90
19242;DHT22;9755;47.790;9.620;2022-12-08T06:31:40;0.20;99.90
19242;DHT22;9755;47.790;9.620;2022-12-08T06:34:07;0.20;99.90
19242;DHT22;9755;47.790;9.620;2022-12-08T06:36:34;0.20;99.90
19242;DHT22;9755;47.790;9.620;2022-12-08T06:39:02;0.20;99.90
19242;DHT22;9755;47.790;9.620;2022-12-08T06:41:29;0.20;99.90
19242;DHT22;9755;47.790;9.620;2022-12-08T06:43:56;0.20;99.90
19242;DHT22;9755;47.790;9.620;2022-12-08T06:46:25;0.30;99.90
19242;DHT22;9755;47.790;9.620;2022-12-08T06:48:52;0.30;99.90
19242;DHT22;9755;47.790;9.620;2022-12-08T06:51:20;0.30;99.90
19242;DHT22;9755;47.790;9.620;2022-12-08T06:53:48;0.40;99.90
19242;DHT22;9755;47.790;9.620;2022-12-08T06:56:16;0.40;99.90
19242;DHT22;9755;47.790;9.620;2022-12-08T06:58:44;0.40;99.90
19242;DHT22;9755;47.790;9.620;2022-12-08T07:01:12;0.40;99.90
19242;DHT22;9755;47.790;9.620;2022-12-08T07:03:49;0.30;99.90
19242;DHT22;9755;47.790;9.620;2022-12-08T07:06:19;0.30;99.90
19242;DHT22;9755;47.790;9.620;2022-12-08T07:08:47;0.30;99.90
19242;DHT22;9755;47.790;9.620;2022-12-08T07:11:14;0.30;99.90
19242;DHT22;9755;47.790;9.620;2022-12-08T07:13:41;0.30;99.90
19242;DHT22;9755;47.790;9.620;2022-12-08T07:16:09;0.30;99.90
19242;DHT22;9755;47.790;9.620;2022-12-08T07:18:37;0.30;99.90
19242;DHT22;9755;47.790;9.620;2022-12-08T07:21:08;0.40;99.90
19242;DHT22;9755;47.790;9.620;2022-12-08T07:23:35;0.40;99.90
19242;DHT22;9755;47.790;9.620;2022-12-08T07:26:04;0.40;99.90
19242;DHT22;9755;47.790;9.620;2022-12-08T07:28:33;0.40;99.90
19242;DHT22;9755;47.790;9.620;2022-12-08T07:31:00;0.50;99.90
19242;DHT22;9755;47.790;9.620;2022-12-08T07:33:27;0.50;99.90
19242;DHT22;9755;47.790;9.620;2022-12-08T07:35:55;0.50;99.90
19242;DHT22;9755;47.790;9.620;2022-12-08T07:38:24;0.60;99.90
19242;DHT22;9755;47.790;9.620;2022-12-08T07:40:52;0.60;99.90
19242;DHT22;9755;47.790;9.620;2022-12-08T07:43:19;0.60;99.90
19242;DHT22;9755;47.790;9.620;2022-12-08T07:45:47;0.60;99.90
19242;DHT22;9755;47.790;9.620;2022-12-08T07:48:14;0.60;99.90
19242;DHT22;9755;47.790;9.620;2022-12-08T07:50:42;0.70;99.90
19242;DHT22;9755;47.790;9.620;2022-12-08T07:53:09;0.70;99.90
19242;DHT22;9755;47.790;9.620;2022-12-08T07:55:40;0.70;99.90
19242;DHT22;9755;47.790;9.620;2022-12-08T07:58:08;0.80;99.90
19242;DHT22;9755;47.790;9.620;2022-12-08T08:00:35;0.80;99.90
19242;DHT22;9755;47.790;9.620;2022-12-08T08:03:02;0.70;99.90
19242;DHT22;9755;47.790;9.620;2022-12-08T08:05:29;0.70;99.90
19242;DHT22;9755;47.790;9.620;2022-12-08T08:07:56;0.80;99.90
19242;DHT22;9755;47.790;9.620;2022-12-08T08:10:23;0.80;99.90
19242;DHT22;9755;47.790;9.620;2022-12-08T08:12:52;0.80;99.90
19242;DHT22;9755;47.790;9.620;2022-12-08T08:15:19;0.90;99.90
19242;DHT22;9755;47.790;9.620;2022-12-08T08:17:48;0.90;99.90
19242;DHT22;9755;47.790;9.620;2022-12-08T08:20:16;0.90;99.90
19242;DHT22;9755;47.790;9.620;2022-12-08T08:22:44;1.00;99.90
19242;DHT22;9755;47.790;9.620;2022-12-08T08:25:12;1.00;99.90
19242;DHT22;9755;47.790;9.620;2022-12-08T08:27:39;1.10;99.90
19242;DHT22;9755;47.790;9.620;2022-12-08T08:30:10;1.10;99.90
19242;DHT22;9755;47.790;9.620;2022-12-08T08:32:37;1.20;99.90
19242;DHT22;9755;47.790;9.620;2022-12-08T08:35:04;1.30;99.90
19242;DHT22;9755;47.790;9.620;2022-12-08T08:37:32;1.30;99.90
19242;DHT22;9755;47.790;9.620;2022-12-08T08:39:59;1.40;99.90
19242;DHT22;9755;47.790;9.620;2022-12-08T08:42:26;1.40;99.90
19242;DHT22;9755;47.790;9.620;2022-12-08T08:44:53;1.50;99.90
19242;DHT22;9755;47.790;9.620;2022-12-08T08:47:23;1.50;99.90
19242;DHT22;9755;47.790;9.620;2022-12-08T08:49:50;1.60;99.90
19242;DHT22;9755;47.790;9.620;2022-12-08T08:52:17;1.60;99.90
19242;DHT22;9755;47.790;9.620;2022-12-08T08:54:44;1.70;99.90
19242;DHT22;9755;47.790;9.620;2022-12-08T08:57:11;1.80;99.90
19242;DHT22;9755;47.790;9.620;2022-12-08T08:59:38;1.90;99.90
19242;DHT22;9755;47.790;9.620;2022-12-08T09:02:05;2.00;99.90
19242;DHT22;9755;47.790;9.620;2022-12-08T09:04:34;2.00;99.90
19242;DHT22;9755;47.790;9.620;2022-12-08T09:07:01;2.10;99.90
19242;DHT22;9755;47.790;9.620;2022-12-08T09:09:28;2.20;99.90
19242;DHT22;9755;47.790;9.620;2022-12-08T09:11:56;2.20;99.90
19242;DHT22;9755;47.790;9.620;2022-12-08T09:14:23;2.30;99.90
19242;DHT22;9755;47.790;9.620;2022-12-08T09:16:50;2.40;99.90
19242;DHT22;9755;47.790;9.620;2022-12-08T09:19:17;2.40;99.90
19242;DHT22;9755;47.790;9.620;2022-12-08T09:21:46;2.40;99.90
19242;DHT22;9755;47.790;9.620;2022-12-08T09:24:13;2.40;99.90
19242;DHT22;9755;47.790;9.620;2022-12-08T09:26:41;2.40;99.90
19242;DHT22;9755;47.790;9.620;2022-12-08T09:29:09;2.60;99.90
19242;DHT22;9755;47.790;9.620;2022-12-08T09:31:36;2.50;39.20
19242;DHT22;9755;47.790;9.620;2022-12-08T09:34:04;2.70;3.80
19242;DHT22;9755;47.790;9.620;2022-12-08T09:36:31;2.70;1.00
19242;DHT22;9755;47.790;9.620;2022-12-08T09:39:00;2.70;1.00
19242;DHT22;9755;47.790;9.620;2022-12-08T09:41:31;2.80;1.00
19242;DHT22;9755;47.790;9.620;2022-12-08T09:44:06;2.80;99.90
19242;DHT22;9755;47.790;9.620;2022-12-08T09:46:42;2.90;1.00
19242;DHT22;9755;47.790;9.620;2022-12-08T09:49:13;3.10;1.00
19242;DHT22;9755;47.790;9.620;2022-12-08T09:51:43;3.10;1.00
19242;DHT22;9755;47.790;9.620;2022-12-08T09:54:16;3.30;99.90
19242;DHT22;9755;47.790;9.620;2022-12-08T09:56:44;3.30;99.90
19242;DHT22;9755;47.790;9.620;2022-12-08T09:59:21;3.50;1.00
19242;DHT22;9755;47.790;9.620;2022-12-08T10:01:49;3.50;1.00
19242;DHT22;9755;47.790;9.620;2022-12-08T10:04:21;3.70;1.00
19242;DHT22;9755;47.790;9.620;2022-12-08T10:06:56;3.70;1.00
19242;DHT22;9755;47.790;9.620;2022-12-08T10:09:32;3.70;99.90
19242;DHT22;9755;47.790;9.620;2022-12-08T10:12:08;3.90;1.00
19242;DHT22;9755;47.790;9.620;2022-12-08T10:14:40;3.90;1.00
19242;DHT22;9755;47.790;9.620;2022-12-08T10:17:15;3.90;1.00
19242;DHT22;9755;47.790;9.620;2022-12-08T10:19:44;3.90;99.90
19242;DHT22;9755;47.790;9.620;2022-12-08T10:22:20;4.00;15.20
19242;DHT22;9755;47.790;9.620;2022-12-08T10:24:54;4.00;1.00
19242;DHT22;9755;47.790;9.620;2022-12-08T10:27:24;4.20;1.00
19242;DHT22;9755;47.790;9.620;2022-12-08T10:29:51;4.30;1.00
19242;DHT22;9755;47.790;9.620;2022-12-08T10:32:20;4.50;99.90
19242;DHT22;9755;47.790;9.620;2022-12-08T10:34:59;4.60;1.00
19242;DHT22;9755;47.790;9.620;2022-12-08T10:37:27;4.70;99.90
19242;DHT22;9755;47.790;9.620;2022-12-08T10:40:00;4.80;1.00
19242;DHT22;9755;47.790;9.620;2022-12-08T10:42:34;5.00;1.00
19242;DHT22;9755;47.790;9.620;2022-12-08T10:45:19;5.20;1.00
19242;DHT22;9755;47.790;9.620;2022-12-08T10:47:56;5.40;1.00
19242;DHT22;9755;47.790;9.620;2022-12-08T10:50:28;5.50;99.90
19242;DHT22;9755;47.790;9.620;2022-12-08T10:52:57;5.60;99.90
19242;DHT22;9755;47.790;9.620;2022-12-08T10:55:26;5.60;99.90
19242;DHT22;9755;47.790;9.620;2022-12-08T10:57:54;5.70;99.90
19242;DHT22;9755;47.790;9.620;2022-12-08T11:00:24;5.80;71.30
19242;DHT22;9755;47.790;9.620;2022-12-08T11:02:56;5.90;10.80
19242;DHT22;9755;47.790;9.620;2022-12-08T11:05:28;5.90;1.00
19242;DHT22;9755;47.790;9.620;2022-12-08T11:07:55;5.90;1.00
19242;DHT22;9755;47.790;9.620;2022-12-08T11:10:31;6.10;1.00
19242;DHT22;9755;47.790;9.620;2022-12-08T11:13:01;6.20;1.00
19242;DHT22;9755;47.790;9.620;2022-12-08T11:15:34;6.30;1.00
19242;DHT22;9755;47.790;9.620;2022-12-08T11:18:07;6.30;1.00
19242;DHT22;9755;47.790;9.620;2022-12-08T11:20:38;6.10;1.00
19242;DHT22;9755;47.790;9.620;2022-12-08T11:23:18;6.00;1.00
19242;DHT22;9755;47.790;9.620;2022-12-08T11:25:47;6.10;1.00
19242;DHT22;9755;47.790;9.620;2022-12-08T11:30:45;6.10;1.00
19242;DHT22;9755;47.790;9.620;2022-12-08T11:33:16;5.90;1.00
19242;DHT22;9755;47.790;9.620;2022-12-08T11:35:46;6.00;1.00
19242;DHT22;9755;47.790;9.620;2022-12-08T11:38:18;5.70;1.00
19242;DHT22;9755;47.790;9.620;2022-12-08T11:40:50;5.60;1.00
19242;DHT22;9755;47.790;9.620;2022-12-08T11:43:21;5.60;1.00
19242;DHT22;9755;47.790;9.620;2022-12-08T11:45:57;5.80;1.00
19242;DHT22;9755;47.790;9.620;2022-12-08T11:48:29;6.00;1.00
19242;DHT22;9755;47.790;9.620;2022-12-08T11:51:02;6.00;1.00
19242;DHT22;9755;47.790;9.620;2022-12-08T11:53:36;5.90;1.00
19242;DHT22;9755;47.790;9.620;2022-12-08T11:56:10;5.90;1.00
19242;DHT22;9755;47.790;9.620;2022-12-08T11:58:42;6.10;1.00
19242;DHT22;9755;47.790;9.620;2022-12-08T12:01:18;6.00;1.00
19242;DHT22;9755;47.790;9.620;2022-12-08T12:03:51;6.10;1.00
19242;DHT22;9755;47.790;9.620;2022-12-08T12:06:34;6.20;1.00
19242;DHT22;9755;47.790;9.620;2022-12-08T12:09:14;5.90;1.00
19242;DHT22;9755;47.790;9.620;2022-12-08T12:11:55;6.10;1.00
19242;DHT22;9755;47.790;9.620;2022-12-08T12:15:21;6.40;1.00
19242;DHT22;9755;47.790;9.620;2022-12-08T12:17:58;6.30;1.00
19242;DHT22;9755;47.790;9.620;2022-12-08T12:20:30;5.60;1.00
19242;DHT22;9755;47.790;9.620;2022-12-08T12:23:01;5.50;1.00
19242;DHT22;9755;47.790;9.620;2022-12-08T12:25:31;5.60;1.00
19242;DHT22;9755;47.790;9.620;2022-12-08T12:28:03;5.80;1.00
19242;DHT22;9755;47.790;9.620;2022-12-08T12:30:49;5.80;1.00
19242;DHT22;9755;47.790;9.620;2022-12-08T12:33:18;5.90;1.00
19242;DHT22;9755;47.790;9.620;2022-12-08T12:35:46;5.80;1.00
19242;DHT22;9755;47.790;9.620;2022-12-08T12:38:21;5.80;1.00
19242;DHT22;9755;47.790;9.620;2022-12-08T12:41:07;6.00;1.00
19242;DHT22;9755;47.790;9.620;2022-12-08T12:43:37;6.00;1.00
19242;DHT22;9755;47.790;9.620;2022-12-08T12:46:52;6.50;1.00
19242;DHT22;9755;47.790;9.620;2022-12-08T12:52:44;6.90;99.90
19242;DHT22;9755;47.790;9.620;2022-12-08T12:58:37;6.70;99.90
19242;DHT22;9755;47.790;9.620;2022-12-08T13:04:29;7.10;99.90
19242;DHT22;9755;47.790;9.620;2022-12-08T13:06:59;7.50;99.90
19242;DHT22;9755;47.790;9.620;2022-12-08T13:09:30;7.50;99.90
19242;DHT22;9755;47.790;9.620;2022-12-08T13:12:00;6.90;99.90
19242;DHT22;9755;47.790;9.620;2022-12-08T13:14:31;6.80;1.00
19242;DHT22;9755;47.790;9.620;2022-12-08T13:17:00;6.70;99.90
19242;DHT22;9755;47.790;9.620;2022-12-08T13:19:32;6.50;99.90
19242;DHT22;9755;47.790;9.620;2022-12-08T13:22:01;6.20;99.90
19242;DHT22;9755;47.790;9.620;2022-12-08T13:24:32;6.10;1.00
19242;DHT22;9755;47.790;9.620;2022-12-08T13:27:28;6.20;99.90
19242;DHT22;9755;47.790;9.620;2022-12-08T13:33:09;6.10;99.90
19242;DHT22;9755;47.790;9.620;2022-12-08T13:35:41;6.10;1.00
19242;DHT22;9755;47.790;9.620;2022-12-08T13:38:15;6.00;99.90
19242;DHT22;9755;47.790;9.620;2022-12-08T13:40:43;6.00;1.00
19242;DHT22;9755;47.790;9.620;2022-12-08T13:43:16;5.80;99.90
19242;DHT22;9755;47.790;9.620;2022-12-08T13:45:44;5.50;1.00
19242;DHT22;9755;47.790;9.620;2022-12-08T13:48:17;5.30;1.00
19242;DHT22;9755;47.790;9.620;2022-12-08T13:50:51;5.10;1.00
19242;DHT22;9755;47.790;9.620;2022-12-08T13:53:21;5.00;1.00
19242;DHT22;9755;47.790;9.620;2022-12-08T13:55:50;4.90;1.00
19242;DHT22;9755;47.790;9.620;2022-12-08T13:58:23;4.80;1.00
19242;DHT22;9755;47.790;9.620;2022-12-08T14:00:58;4.80;1.00
19242;DHT22;9755;47.790;9.620;2022-12-08T14:03:27;4.60;1.00
19242;DHT22;9755;47.790;9.620;2022-12-08T14:05:55;4.60;1.00
19242;DHT22;9755;47.790;9.620;2022-12-08T14:08:28;4.40;1.00
19242;DHT22;9755;47.790;9.620;2022-12-08T14:11:00;4.40;1.00
19242;DHT22;9755;47.790;9.620;2022-12-08T14:13:29;4.40;1.00
19242;DHT22;9755;47.790;9.620;2022-12-08T14:15:56;4.20;1.00
19242;DHT22;9755;47.790;9.620;2022-12-08T14:18:25;4.20;1.00
19242;DHT22;9755;47.790;9.620;2022-12-08T14:21:03;4.10;1.00
19242;DHT22;9755;47.790;9.620;2022-12-08T14:23:33;4.00;1.00
19242;DHT22;9755;47.790;9.620;2022-12-08T14:26:03;3.90;1.00
19242;DHT22;9755;47.790;9.620;2022-12-08T14:28:31;3.90;1.00
19242;DHT22;9755;47.790;9.620;2022-12-08T14:30:59;3.90;1.00
19242;DHT22;9755;47.790;9.620;2022-12-08T14:33:26;3.70;1.00
19242;DHT22;9755;47.790;9.620;2022-12-08T14:35:54;3.60;1.00
19242;DHT22;9755;47.790;9.620;2022-12-08T14:38:24;3.50;1.00
19242;DHT22;9755;47.790;9.620;2022-12-08T14:41:00;3.60;1.00
19242;DHT22;9755;47.790;9.620;2022-12-08T14:43:29;3.50;1.00
19242;DHT22;9755;47.790;9.620;2022-12-08T14:45:59;3.50;1.00
19242;DHT22;9755;47.790;9.620;2022-12-08T14:48:39;3.50;1.00
19242;DHT22;9755;47.790;9.620;2022-12-08T14:51:14;3.40;1.00
19242;DHT22;9755;47.790;9.620;2022-12-08T14:53:45;3.30;1.00
19242;DHT22;9755;47.790;9.620;2022-12-08T14:56:17;3.30;1.00
19242;DHT22;9755;47.790;9.620;2022-12-08T14:58:46;3.30;1.00
19242;DHT22;9755;47.790;9.620;2022-12-08T15:01:17;3.20;1.00
19242;DHT22;9755;47.790;9.620;2022-12-08T15:03:47;3.10;1.00
19242;DHT22;9755;47.790;9.620;2022-12-08T15:06:15;3.00;1.00
19242;DHT22;9755;47.790;9.620;2022-12-08T15:08:55;3.00;1.00
19242;DHT22;9755;47.790;9.620;2022-12-08T15:11:31;2.90;1.00
19242;DHT22;9755;47.790;9.620;2022-12-08T15:13:59;2.80;1.00
19242;DHT22;9755;47.790;9.620;2022-12-08T15:16:28;2.70;1.00
19242;DHT22;9755;47.790;9.620;2022-12-08T15:19:13;2.70;1.00
19242;DHT22;9755;47.790;9.620;2022-12-08T15:21:42;2.70;1.00
19242;DHT22;9755;47.790;9.620;2022-12-08T15:24:13;2.70;1.00
19242;DHT22;9755;47.790;9.620;2022-12-08T15:26:44;2.70;1.00
19242;DHT22;9755;47.790;9.620;2022-12-08T15:29:16;2.60;1.00
19242;DHT22;9755;47.790;9.620;2022-12-08T15:31:44;2.60;1.00
19242;DHT22;9755;47.790;9.620;2022-12-08T15:34:11;2.60;1.00
19242;DHT22;9755;47.790;9.620;2022-12-08T15:36:38;2.50;1.00
19242;DHT22;9755;47.790;9.620;2022-12-08T15:39:19;2.40;1.00
19242;DHT22;9755;47.790;9.620;2022-12-08T15:41:47;2.30;1.00
19242;DHT22;9755;47.790;9.620;2022-12-08T15:44:14;2.20;1.00
19242;DHT22;9755;47.790;9.620;2022-12-08T15:46:41;2.10;1.00
19242;DHT22;9755;47.790;9.620;2022-12-08T15:49:15;2.00;1.00
19242;DHT22;9755;47.790;9.620;2022-12-08T15:51:42;2.00;1.00
19242;DHT22;9755;47.790;9.620;2022-12-08T15:54:09;1.90;1.00
19242;DHT22;9755;47.790;9.620;2022-12-08T15:56:41;1.90;1.00
19242;DHT22;9755;47.790;9.620;2022-12-08T15:59:13;1.80;1.00
19242;DHT22;9755;47.790;9.620;2022-12-08T16:01:42;1.80;1.00
19242;DHT22;9755;47.790;9.620;2022-12-08T16:04:12;1.80;1.00
19242;DHT22;9755;47.790;9.620;2022-12-08T16:06:41;1.70;1.00
19242;DHT22;9755;47.790;9.620;2022-12-08T16:09:16;1.70;1.00
19242;DHT22;9755;47.790;9.620;2022-12-08T16:11:45;1.60;1.00
19242;DHT22;9755;47.790;9.620;2022-12-08T16:14:30;1.70;1.00
19242;DHT22;9755;47.790;9.620;2022-12-08T16:16:57;1.70;5.10
19242;DHT22;9755;47.790;9.620;2022-12-08T16:19:24;1.70;21.40
19242;DHT22;9755;47.790;9.620;2022-12-08T16:21:51;1.60;28.40
19242;DHT22;9755;47.790;9.620;2022-12-08T16:24:19;1.60;99.90
19242;DHT22;9755;47.790;9.620;2022-12-08T16:26:50;1.60;99.90
19242;DHT22;9755;47.790;9.620;2022-12-08T16:29:19;1.50;99.90
19242;DHT22;9755;47.790;9.620;2022-12-08T16:31:47;1.50;99.90
19242;DHT22;9755;47.790;9.620;2022-12-08T16:34:14;1.50;99.90
19242;DHT22;9755;47.790;9.620;2022-12-08T16:36:41;1.40;99.90
19242;DHT22;9755;47.790;9.620;2022-12-08T16:39:10;1.30;99.90
19242;DHT22;9755;47.790;9.620;2022-12-08T16:41:39;1.30;99.90
19242;DHT22;9755;47.790;9.620;2022-12-08T16:44:28;1.30;99.90